createdAt,value
2019-01-25T00:01:55.194Z,98573.41
2019-01-25T00:04:21.350Z,98572.45
2019-01-25T00:06:47.544Z,98578.60
2019-01-25T00:09:13.694Z,98589.27
2019-01-25T00:11:39.849Z,98590.94
2019-01-25T00:14:06.032Z,98590.36
2019-01-25T00:16:32.194Z,98588.42
2019-01-25T00:18:58.344Z,98580.47
2019-01-25T00:21:24.637Z,98575.89
2019-01-25T00:23:50.987Z,98583.02
2019-01-25T00:26:17.514Z,98575.95
2019-01-25T00:28:43.753Z,98581.67
2019-01-25T00:31:09.951Z,98603.20
2019-01-25T00:33:36.114Z,98601.17
2019-01-25T00:36:02.404Z,98606.08
2019-01-25T00:38:28.672Z,98609.77
2019-01-25T00:40:54.856Z,98614.74
2019-01-25T00:43:21.044Z,98621.94
2019-01-25T00:45:47.198Z,98618.04
2019-01-25T00:48:13.366Z,98608.12
2019-01-25T00:50:39.548Z,98609.09
2019-01-25T00:53:05.710Z,98611.50
2019-01-25T00:55:31.856Z,98616.72
2019-01-25T00:57:58.143Z,98631.83
2019-01-25T01:00:25.795Z,98620.41
2019-01-25T01:02:52.248Z,98631.00
2019-01-25T01:05:19.728Z,98634.88
2019-01-25T01:07:46.580Z,98629.97
2019-01-25T01:10:14.219Z,98647.95
2019-01-25T01:12:40.719Z,98648.12
2019-01-25T01:15:10.282Z,98642.34
2019-01-25T01:17:36.548Z,98641.27
2019-01-25T01:20:06.441Z,98633.28
2019-01-25T01:22:32.591Z,98634.95
2019-01-25T01:24:58.747Z,98637.42
2019-01-25T01:27:24.939Z,98639.91
2019-01-25T01:29:51.097Z,98636.77
2019-01-25T01:32:17.245Z,98641.53
2019-01-25T01:34:43.526Z,98658.02
2019-01-25T01:37:09.814Z,98673.47
2019-01-25T01:39:35.935Z,98673.87
2019-01-25T01:42:02.354Z,98679.80
2019-01-25T01:44:28.510Z,98685.53
2019-01-25T01:46:54.663Z,98683.53
2019-01-25T01:49:20.843Z,98689.66
2019-01-25T01:51:47.005Z,98690.78
2019-01-25T01:54:13.158Z,98685.66
2019-01-25T01:56:39.348Z,98674.25
2019-01-25T01:59:05.509Z,98666.14
2019-01-25T02:01:31.652Z,98662.23
2019-01-25T02:03:57.846Z,98661.66
2019-01-25T02:06:23.991Z,98657.92
2019-01-25T02:08:50.139Z,98656.59
2019-01-25T02:11:16.323Z,98653.45
2019-01-25T02:13:42.475Z,98645.64
2019-01-25T02:16:08.638Z,98638.45
2019-01-25T02:18:34.822Z,98634.20
2019-01-25T02:21:01.081Z,98631.19
2019-01-25T02:23:27.218Z,98640.86
2019-01-25T02:25:53.403Z,98630.13
2019-01-25T02:28:19.562Z,98624.10
2019-01-25T02:30:45.718Z,98608.64
2019-01-25T02:33:11.910Z,98608.31
2019-01-25T02:35:38.066Z,98596.83
2019-01-25T02:38:04.225Z,98593.92
2019-01-25T02:40:38.597Z,98592.61
2019-01-25T02:42:58.513Z,98586.38
2019-01-25T02:45:24.660Z,98592.27
2019-01-25T02:47:50.843Z,98594.06
2019-01-25T02:50:18.598Z,98592.46
2019-01-25T02:52:44.760Z,98578.00
2019-01-25T02:55:12.710Z,98575.00
2019-01-25T02:57:38.867Z,98586.68
2019-01-25T03:00:11.446Z,98582.85
2019-01-25T03:02:37.644Z,98578.48
2019-01-25T03:05:06.725Z,98578.42
2019-01-25T03:07:32.972Z,98564.14
2019-01-25T03:09:59.168Z,98563.00
2019-01-25T03:12:25.326Z,98579.33
2019-01-25T03:14:51.487Z,98579.19
2019-01-25T03:17:17.662Z,98589.06
2019-01-25T03:19:43.810Z,98584.37
2019-01-25T03:22:09.957Z,98588.50
2019-01-25T03:24:36.161Z,98596.62
2019-01-25T03:27:02.523Z,98594.25
2019-01-25T03:29:28.677Z,98587.75
2019-01-25T03:31:54.885Z,98581.09
2019-01-25T03:34:21.127Z,98587.16
2019-01-25T03:36:47.285Z,98595.31
2019-01-25T03:39:13.569Z,98602.57
2019-01-25T03:41:39.718Z,98583.34
2019-01-25T03:44:05.883Z,98576.16
2019-01-25T03:46:32.064Z,98576.09
2019-01-25T03:48:58.319Z,98596.91
2019-01-25T03:51:24.482Z,98605.12
2019-01-25T03:53:50.759Z,98613.20
2019-01-25T03:56:17.015Z,98602.13
2019-01-25T03:58:43.169Z,98600.09
2019-01-25T04:01:09.346Z,98597.98
2019-01-25T04:03:35.502Z,98589.18
2019-01-25T04:06:01.655Z,98599.30
2019-01-25T04:08:27.843Z,98599.59
2019-01-25T04:10:53.999Z,98618.89
2019-01-25T04:13:20.148Z,98617.98
2019-01-25T04:15:46.331Z,98622.65
2019-01-25T04:18:12.489Z,98628.73
2019-01-25T04:20:38.642Z,98614.72
2019-01-25T04:23:04.828Z,98612.53
2019-01-25T04:25:30.981Z,98607.66
2019-01-25T04:27:57.138Z,98604.66
2019-01-25T04:30:26.224Z,98610.25
2019-01-25T04:32:52.617Z,98609.52
2019-01-25T04:35:18.749Z,98613.56
2019-01-25T04:37:44.925Z,98608.70
2019-01-25T04:40:13.277Z,98614.92
2019-01-25T04:42:39.434Z,98607.30
2019-01-25T04:45:09.075Z,98621.70
2019-01-25T04:47:35.239Z,98608.13
2019-01-25T04:50:01.397Z,98605.71
2019-01-25T04:52:27.693Z,98614.45
2019-01-25T04:54:53.849Z,98617.62
2019-01-25T04:57:20.012Z,98619.96
2019-01-25T04:59:46.307Z,98628.48
2019-01-25T05:02:12.554Z,98642.41
2019-01-25T05:04:38.824Z,98643.59
2019-01-25T05:07:05.201Z,98637.94
2019-01-25T05:09:34.956Z,98637.35
2019-01-25T05:12:01.113Z,98650.66
2019-01-25T05:14:30.807Z,98665.28
2019-01-25T05:16:56.965Z,98665.77
2019-01-25T05:19:23.119Z,98669.97
2019-01-25T05:21:49.325Z,98665.34
2019-01-25T05:24:15.477Z,98672.94
2019-01-25T05:26:41.625Z,98659.48
2019-01-25T05:29:07.806Z,98647.16
2019-01-25T05:31:34.070Z,98645.23
2019-01-25T05:34:00.227Z,98647.33
2019-01-25T05:36:26.417Z,98652.50
2019-01-25T05:38:52.570Z,98655.19
2019-01-25T05:41:18.717Z,98651.19
2019-01-25T05:43:45.013Z,98649.03
2019-01-25T05:46:11.330Z,98640.33
2019-01-25T05:48:37.647Z,98631.39
2019-01-25T05:51:03.911Z,98631.20
2019-01-25T05:53:30.059Z,98629.16
2019-01-25T05:55:56.213Z,98634.02
2019-01-25T05:58:22.501Z,98629.94
2019-01-25T06:00:48.761Z,98625.40
2019-01-25T06:03:15.038Z,98632.33
2019-01-25T06:05:41.228Z,98629.02
2019-01-25T06:08:28.281Z,98634.91
2019-01-25T06:10:54.469Z,98628.27
2019-01-25T06:13:20.633Z,98633.42
2019-01-25T06:15:46.899Z,98625.96
2019-01-25T06:18:13.091Z,98635.03
2019-01-25T06:20:39.361Z,98644.64
2019-01-25T06:23:05.507Z,98653.75
2019-01-25T06:25:31.689Z,98649.98
2019-01-25T06:27:58.208Z,98653.20
2019-01-25T06:30:24.360Z,98653.44
2019-01-25T06:32:50.659Z,98652.41
2019-01-25T06:35:16.812Z,98646.23
2019-01-25T06:37:42.965Z,98642.75
2019-01-25T06:40:11.160Z,98637.70
2019-01-25T06:42:37.325Z,98639.95
2019-01-25T06:45:10.292Z,98648.95
2019-01-25T06:47:36.545Z,98648.38
2019-01-25T06:50:08.098Z,98646.79
2019-01-25T06:52:34.268Z,98640.25
2019-01-25T06:55:00.473Z,98641.63
2019-01-25T06:57:28.530Z,98643.75
2019-01-25T06:59:54.696Z,98637.92
2019-01-25T07:02:21.489Z,98642.67
2019-01-25T07:04:47.644Z,98633.52
2019-01-25T07:07:15.705Z,98645.02
2019-01-25T07:09:41.890Z,98643.61
2019-01-25T07:12:08.046Z,98637.35
2019-01-25T07:14:34.200Z,98630.84
2019-01-25T07:17:00.386Z,98631.30
2019-01-25T07:19:26.538Z,98626.84
2019-01-25T07:21:52.696Z,98622.44
2019-01-25T07:24:18.986Z,98620.65
2019-01-25T07:26:45.160Z,98625.80
2019-01-25T07:29:11.430Z,98625.11
2019-01-25T07:31:37.602Z,98633.18
2019-01-25T07:34:03.759Z,98610.48
2019-01-25T07:36:29.958Z,98619.17
2019-01-25T07:38:56.341Z,98614.11
2019-01-25T07:41:22.651Z,98605.23
2019-01-25T07:43:48.824Z,98611.96
2019-01-25T07:46:15.295Z,98611.39
2019-01-25T07:48:42.465Z,98604.53
2019-01-25T07:51:08.629Z,98599.20
2019-01-25T07:53:34.840Z,98611.23
2019-01-25T07:56:00.985Z,98596.28
2019-01-25T07:58:27.133Z,98601.19
2019-01-25T08:00:53.468Z,98607.80
2019-01-25T08:03:19.805Z,98610.25
2019-01-25T08:05:45.940Z,98605.00
2019-01-25T08:08:12.242Z,98607.25
2019-01-25T08:10:38.680Z,98606.64
2019-01-25T08:13:04.968Z,98608.45
2019-01-25T08:15:31.257Z,98604.98
2019-01-25T08:17:57.409Z,98599.23
2019-01-25T08:20:23.587Z,98596.08
2019-01-25T08:22:50.104Z,98592.89
2019-01-25T08:25:16.561Z,98595.43
2019-01-25T08:27:42.884Z,98602.57
2019-01-25T08:30:15.536Z,98600.55
2019-01-25T08:32:41.710Z,98592.38
2019-01-25T08:35:09.889Z,98599.33
2019-01-25T08:37:36.144Z,98611.36
2019-01-25T08:40:03.825Z,98611.87
2019-01-25T08:42:30.057Z,98596.52
2019-01-25T08:44:56.256Z,98599.95
2019-01-25T08:47:22.402Z,98592.33
2019-01-25T08:49:49.027Z,98595.77
2019-01-25T08:52:15.347Z,98585.98
2019-01-25T08:54:41.566Z,98596.81
2019-01-25T08:57:07.711Z,98589.73
2019-01-25T08:59:33.973Z,98590.29
2019-01-25T09:02:00.162Z,98582.10
2019-01-25T09:04:26.417Z,98579.43
2019-01-25T09:06:52.706Z,98580.74
2019-01-25T09:09:18.859Z,98581.38
2019-01-25T09:11:45.013Z,98573.91
2019-01-25T09:14:11.302Z,98572.20
2019-01-25T09:16:37.453Z,98565.28
2019-01-25T09:19:03.710Z,98573.75
2019-01-25T09:21:29.905Z,98566.84
2019-01-25T09:23:56.056Z,98567.50
2019-01-25T09:26:22.208Z,98563.98
2019-01-25T09:28:48.450Z,98564.53
2019-01-25T09:31:14.622Z,98545.02
2019-01-25T09:33:40.774Z,98549.91
2019-01-25T09:36:06.975Z,98536.97
2019-01-25T09:38:34.193Z,98532.63
2019-01-25T09:41:00.581Z,98528.95
2019-01-25T09:43:26.781Z,98529.22
2019-01-25T09:45:52.930Z,98527.88
2019-01-25T09:48:19.098Z,98519.75
2019-01-25T09:50:52.530Z,98515.31
2019-01-25T09:53:13.412Z,98510.23
2019-01-25T09:55:39.578Z,98507.89
2019-01-25T09:58:11.990Z,98503.42
2019-01-25T10:00:56.807Z,98500.28
2019-01-25T10:03:23.103Z,98489.58
2019-01-25T10:05:49.261Z,98494.63
2019-01-25T10:08:15.527Z,98495.87
2019-01-25T10:10:41.816Z,98497.94
2019-01-25T10:13:07.976Z,98495.52
2019-01-25T10:15:34.243Z,98496.95
2019-01-25T10:18:00.468Z,98495.11
2019-01-25T10:20:26.625Z,98479.80
2019-01-25T10:22:52.888Z,98476.23
2019-01-25T10:25:19.077Z,98467.70
2019-01-25T10:27:45.234Z,98466.19
2019-01-25T10:30:15.113Z,98470.81
2019-01-25T10:32:41.398Z,98460.98
2019-01-25T10:35:09.457Z,98466.28
2019-01-25T10:37:35.625Z,98458.26
2019-01-25T10:40:02.625Z,98454.83
2019-01-25T10:42:28.896Z,98452.16
2019-01-25T10:44:55.161Z,98447.34
2019-01-25T10:47:21.390Z,98457.81
2019-01-25T10:49:47.622Z,98455.97
2019-01-25T10:52:14.736Z,98456.16
2019-01-25T10:54:41.019Z,98446.63
2019-01-25T10:57:07.174Z,98452.84
2019-01-25T10:59:33.331Z,98448.89
2019-01-25T11:01:59.546Z,98442.02
2019-01-25T11:04:25.803Z,98441.88
2019-01-25T11:06:51.959Z,98443.27
2019-01-25T11:09:18.153Z,98430.11
2019-01-25T11:11:44.309Z,98429.72
2019-01-25T11:14:10.564Z,98421.00
2019-01-25T11:16:36.843Z,98424.83
2019-01-25T11:19:03.046Z,98413.89
2019-01-25T11:21:29.198Z,98421.06
2019-01-25T11:23:55.398Z,98424.75
2019-01-25T11:26:21.645Z,98417.11
2019-01-25T11:28:47.795Z,98421.39
2019-01-25T11:31:13.985Z,98402.73
2019-01-25T11:33:40.239Z,98410.47
2019-01-25T11:36:06.403Z,98401.88
2019-01-25T11:38:32.599Z,98391.92
2019-01-25T11:40:58.868Z,98390.38
2019-01-25T11:43:26.267Z,98383.73
2019-01-25T11:45:54.367Z,98371.67
2019-01-25T11:48:20.626Z,98370.30
2019-01-25T11:50:46.800Z,98369.70
2019-01-25T11:53:13.016Z,98364.63
2019-01-25T11:55:39.183Z,98364.28
2019-01-25T11:58:05.445Z,98359.88
2019-01-25T12:00:32.728Z,98359.83
2019-01-25T12:02:58.885Z,98358.02
2019-01-25T12:05:25.140Z,98349.14
2019-01-25T12:07:52.543Z,98352.15
2019-01-25T12:10:21.223Z,98340.91
2019-01-25T12:12:47.412Z,98339.73
2019-01-25T12:15:15.470Z,98336.36
2019-01-25T12:17:41.724Z,98335.02
2019-01-25T12:20:11.719Z,98323.05
2019-01-25T12:22:38.043Z,98324.37
2019-01-25T12:25:07.367Z,98320.25
2019-01-25T12:27:33.518Z,98317.96
2019-01-25T12:29:59.786Z,98307.66
2019-01-25T12:32:25.952Z,98302.67
2019-01-25T12:34:52.111Z,98315.63
2019-01-25T12:37:18.407Z,98307.20
2019-01-25T12:39:44.561Z,98301.59
2019-01-25T12:42:10.712Z,98295.44
2019-01-25T12:44:37.002Z,98294.98
2019-01-25T12:47:03.157Z,98306.05
2019-01-25T12:49:29.320Z,98312.25
2019-01-25T12:51:55.620Z,98305.91
2019-01-25T12:54:21.833Z,98303.59
2019-01-25T12:56:47.991Z,98301.31
2019-01-25T12:59:14.182Z,98307.22
2019-01-25T13:01:40.559Z,98302.27
2019-01-25T13:04:06.731Z,98297.20
2019-01-25T13:06:32.916Z,98294.85
2019-01-25T13:08:59.085Z,98289.88
2019-01-25T13:11:25.293Z,98290.50
2019-01-25T13:13:53.299Z,98290.61
2019-01-25T13:16:19.468Z,98293.25
2019-01-25T13:18:45.632Z,98296.88
2019-01-25T13:21:13.732Z,98297.88
2019-01-25T13:23:39.888Z,98290.70
2019-01-25T13:26:06.090Z,98304.09
2019-01-25T13:28:32.444Z,98293.64
2019-01-25T13:30:58.706Z,98287.10
2019-01-25T13:33:24.870Z,98289.14
2019-01-25T13:35:51.070Z,98293.21
2019-01-25T13:38:17.222Z,98301.33
2019-01-25T13:40:43.787Z,98301.94
2019-01-25T13:43:10.112Z,98304.85
2019-01-25T13:45:36.268Z,98294.56
2019-01-25T13:48:04.240Z,98296.86
2019-01-25T13:50:30.435Z,98296.83
2019-01-25T13:52:56.600Z,98292.33
2019-01-25T13:55:27.075Z,98288.59
2019-01-25T13:57:53.267Z,98285.18
2019-01-25T14:00:51.026Z,98292.95
2019-01-25T14:03:17.223Z,98294.69
2019-01-25T14:05:43.378Z,98296.83
2019-01-25T14:08:09.662Z,98295.75
2019-01-25T14:10:36.283Z,98304.41
2019-01-25T14:13:04.750Z,98297.88
2019-01-25T14:15:30.918Z,98305.11
2019-01-25T14:17:57.246Z,98299.93
2019-01-25T14:20:29.341Z,98296.73
2019-01-25T14:22:55.518Z,98303.57
2019-01-25T14:25:21.924Z,98298.84
2019-01-25T14:27:49.408Z,98294.47
2019-01-25T14:30:30.742Z,98300.70
2019-01-25T14:32:56.926Z,98293.13
2019-01-25T14:35:23.084Z,98291.86
2019-01-25T14:37:49.360Z,98289.07
2019-01-25T14:40:15.518Z,98307.80
2019-01-25T14:42:41.783Z,98304.23
2019-01-25T14:45:11.476Z,98298.20
2019-01-25T14:47:37.651Z,98301.00
2019-01-25T14:50:07.513Z,98298.16
2019-01-25T14:52:33.721Z,98295.98
2019-01-25T14:54:59.875Z,98291.88
2019-01-25T14:57:26.066Z,98289.00
2019-01-25T14:59:52.378Z,98288.97
2019-01-25T15:02:18.546Z,98280.41
2019-01-25T15:04:44.727Z,98284.63
2019-01-25T15:07:10.892Z,98282.92
2019-01-25T15:09:38.114Z,98283.80
2019-01-25T15:12:04.508Z,98284.27
2019-01-25T15:14:30.694Z,98275.95
2019-01-25T15:16:56.910Z,98283.14
2019-01-25T15:19:23.027Z,98268.66
2019-01-25T15:21:50.833Z,98263.27
2019-01-25T15:24:17.287Z,98266.78
2019-01-25T15:26:43.972Z,98269.28
2019-01-25T15:29:10.281Z,98272.05
2019-01-25T15:31:36.511Z,98271.08
2019-01-25T15:34:02.839Z,98266.70
2019-01-25T15:36:29.032Z,98259.35
2019-01-25T15:38:55.294Z,98258.70
2019-01-25T15:41:21.628Z,98254.40
2019-01-25T15:43:47.820Z,98264.70
2019-01-25T15:46:13.980Z,98254.03
2019-01-25T15:48:40.142Z,98249.41
2019-01-25T15:51:06.342Z,98245.64
2019-01-25T15:53:32.504Z,98259.27
2019-01-25T15:55:58.670Z,98253.91
2019-01-25T15:58:24.898Z,98259.06
2019-01-25T16:00:51.065Z,98257.70
2019-01-25T16:03:17.329Z,98255.14
2019-01-25T16:05:43.522Z,98261.45
2019-01-25T16:08:09.782Z,98253.36
2019-01-25T16:10:35.937Z,98253.28
2019-01-25T16:13:02.127Z,98253.07
2019-01-25T16:15:28.575Z,98252.56
2019-01-25T16:17:54.731Z,98259.16
2019-01-25T16:20:21.419Z,98258.31
2019-01-25T16:22:49.718Z,98250.95
2019-01-25T16:25:27.250Z,98241.27
2019-01-25T16:27:53.505Z,98232.19
2019-01-25T16:30:22.463Z,98238.98
2019-01-25T16:32:48.764Z,98240.81
2019-01-25T16:35:15.425Z,98237.11
2019-01-25T16:37:41.580Z,98229.18
2019-01-25T16:40:11.071Z,98231.05
2019-01-25T16:42:37.247Z,98238.18
2019-01-25T16:45:07.010Z,98230.68
2019-01-25T16:47:33.296Z,98225.54
2019-01-25T16:49:59.555Z,98227.55
2019-01-25T16:52:25.710Z,98223.30
2019-01-25T16:54:51.911Z,98226.32
2019-01-25T16:57:18.076Z,98225.49
2019-01-25T16:59:44.237Z,98226.51
2019-01-25T17:02:10.420Z,98225.26
2019-01-25T17:04:36.683Z,98227.66
2019-01-25T17:07:02.938Z,98227.38
2019-01-25T17:09:29.140Z,98227.02
2019-01-25T17:11:55.392Z,98227.71
2019-01-25T17:14:21.672Z,98219.28
2019-01-25T17:16:48.034Z,98217.53
2019-01-25T17:19:16.017Z,98211.33
2019-01-25T17:21:42.172Z,98212.80
2019-01-25T17:24:08.368Z,98211.42
2019-01-25T17:26:34.524Z,98209.16
2019-01-25T17:29:00.687Z,98207.56
2019-01-25T17:31:26.902Z,98210.39
2019-01-25T17:33:53.166Z,98199.52
2019-01-25T17:36:19.322Z,98193.58
2019-01-25T17:38:45.525Z,98192.09
2019-01-25T17:41:11.781Z,98189.27
2019-01-25T17:43:37.941Z,98187.91
2019-01-25T17:46:04.233Z,98192.84
2019-01-25T17:48:30.390Z,98195.53
2019-01-25T17:50:56.548Z,98193.29
2019-01-25T17:53:22.741Z,98187.61
2019-01-25T17:55:49.003Z,98193.02
2019-01-25T17:58:15.362Z,98185.45
2019-01-25T18:00:43.650Z,98185.11
2019-01-25T18:03:09.788Z,98182.25
2019-01-25T18:05:36.044Z,98177.59
2019-01-25T18:08:02.343Z,98177.78
2019-01-25T18:10:28.606Z,98182.28
2019-01-25T18:12:54.784Z,98176.45
2019-01-25T18:15:21.080Z,98182.96
2019-01-25T18:17:47.331Z,98180.55
2019-01-25T18:20:16.196Z,98184.53
2019-01-25T18:22:42.494Z,98179.20
2019-01-25T18:25:11.787Z,98182.00
2019-01-25T18:27:41.373Z,98185.72
2019-01-25T18:30:34.281Z,98180.11
2019-01-25T18:33:02.821Z,98176.91
2019-01-25T18:35:29.015Z,98172.65
2019-01-25T18:37:55.191Z,98178.99
2019-01-25T18:40:23.370Z,98176.03
2019-01-25T18:42:53.829Z,98179.06
2019-01-25T18:45:21.907Z,98172.55
2019-01-25T18:47:48.128Z,98167.00
2019-01-25T18:50:15.083Z,98165.66
2019-01-25T18:52:41.333Z,98162.81
2019-01-25T18:55:13.708Z,98161.02
2019-01-25T18:57:41.778Z,98161.42
2019-01-25T19:00:14.459Z,98154.90
2019-01-25T19:02:40.805Z,98152.36
2019-01-25T19:05:08.763Z,98145.21
2019-01-25T19:07:34.950Z,98145.66
2019-01-25T19:10:02.524Z,98138.53
2019-01-25T19:12:28.684Z,98134.59
2019-01-25T19:14:54.884Z,98132.35
2019-01-25T19:17:21.056Z,98128.46
2019-01-25T19:19:47.312Z,98131.48
2019-01-25T19:22:13.615Z,98125.86
2019-01-25T19:24:39.766Z,98125.52
2019-01-25T19:27:06.048Z,98119.98
2019-01-25T19:29:32.236Z,98120.38
2019-01-25T19:31:58.391Z,98118.94
2019-01-25T19:34:24.767Z,98119.61
2019-01-25T19:36:54.209Z,98122.39
2019-01-25T19:39:20.382Z,98125.33
2019-01-25T19:41:46.540Z,98119.79
2019-01-25T19:44:13.227Z,98118.37
2019-01-25T19:46:39.435Z,98118.05
2019-01-25T19:49:05.588Z,98115.28
2019-01-25T19:51:31.772Z,98117.08
2019-01-25T19:53:57.927Z,98123.20
2019-01-25T19:56:24.078Z,98116.25
2019-01-25T19:58:50.319Z,98114.11
2019-01-25T20:01:16.677Z,98119.33
2019-01-25T20:03:43.686Z,98116.03
2019-01-25T20:06:09.987Z,98105.52
2019-01-25T20:08:36.251Z,98113.37
2019-01-25T20:11:02.399Z,98113.37
2019-01-25T20:13:28.612Z,98108.13
2019-01-25T20:15:54.877Z,98107.61
2019-01-25T20:18:21.036Z,98105.07
2019-01-25T20:20:47.361Z,98110.86
2019-01-25T20:23:13.519Z,98111.48
2019-01-25T20:25:39.670Z,98105.08
2019-01-25T20:28:08.058Z,98109.52
2019-01-25T20:30:37.709Z,98113.17
2019-01-25T20:33:04.369Z,98107.67
2019-01-25T20:35:33.062Z,98113.70
2019-01-25T20:37:59.341Z,98116.39
2019-01-25T20:40:25.509Z,98109.81
2019-01-25T20:42:51.708Z,98111.89
2019-01-25T20:45:27.267Z,98116.48
2019-01-25T20:47:51.913Z,98113.94
2019-01-25T20:50:20.919Z,98102.08
2019-01-25T20:52:47.071Z,98114.00
2019-01-25T20:55:21.185Z,98111.23
2019-01-25T20:57:47.464Z,98112.30
2019-01-25T21:00:17.081Z,98111.89
2019-01-25T21:02:43.463Z,98119.05
2019-01-25T21:05:09.747Z,98119.53
2019-01-25T21:07:35.923Z,98121.60
2019-01-25T21:10:03.803Z,98119.80
2019-01-25T21:12:30.018Z,98119.11
2019-01-25T21:14:56.186Z,98112.72
2019-01-25T21:17:22.348Z,98114.69
2019-01-25T21:19:48.638Z,98114.69
2019-01-25T21:22:14.794Z,98105.21
2019-01-25T21:24:41.051Z,98115.82
2019-01-25T21:27:07.241Z,98114.30
2019-01-25T21:29:34.260Z,98110.73
2019-01-25T21:32:00.534Z,98111.83
2019-01-25T21:34:27.093Z,98104.08
2019-01-25T21:36:53.251Z,98098.53
2019-01-25T21:39:19.405Z,98103.36
2019-01-25T21:41:45.610Z,98101.59
2019-01-25T21:44:11.867Z,98099.88
2019-01-25T21:46:40.426Z,98096.52
2019-01-25T21:49:06.110Z,98097.23
2019-01-25T21:51:32.636Z,98090.47
2019-01-25T21:53:58.916Z,98086.81
2019-01-25T21:56:25.126Z,98093.95
2019-01-25T21:58:51.389Z,98094.44
2019-01-25T22:01:17.575Z,98098.06
2019-01-25T22:03:43.769Z,98094.97
2019-01-25T22:06:09.938Z,98089.44
2019-01-25T22:08:36.089Z,98087.87
2019-01-25T22:11:02.577Z,98085.11
2019-01-25T22:13:28.729Z,98087.14
2019-01-25T22:15:54.990Z,98081.07
2019-01-25T22:18:21.327Z,98081.80
2019-01-25T22:20:47.588Z,98080.00
2019-01-25T22:23:13.911Z,98079.14
2019-01-25T22:25:40.090Z,98080.08
2019-01-25T22:28:06.252Z,98084.70
2019-01-25T22:30:35.483Z,98078.47
2019-01-25T22:33:01.689Z,98085.52
2019-01-25T22:35:27.942Z,98077.76
2019-01-25T22:37:54.108Z,98079.17
2019-01-25T22:40:24.341Z,98081.08
2019-01-25T22:42:50.656Z,98086.63
2019-01-25T22:45:19.014Z,98078.19
2019-01-25T22:47:45.211Z,98082.20
2019-01-25T22:50:14.964Z,98079.03
2019-01-25T22:52:41.126Z,98076.69
2019-01-25T22:55:10.816Z,98077.91
2019-01-25T22:57:37.070Z,98072.70
2019-01-25T23:00:06.836Z,98082.52
2019-01-25T23:02:33.016Z,98070.78
2019-01-25T23:05:14.744Z,98079.77
2019-01-25T23:07:41.036Z,98076.72
2019-01-25T23:10:09.302Z,98073.00
2019-01-25T23:12:35.917Z,98074.36
2019-01-25T23:15:03.172Z,98078.49
2019-01-25T23:17:29.327Z,98074.81
2019-01-25T23:19:55.482Z,98077.81
2019-01-25T23:22:21.776Z,98076.25
2019-01-25T23:24:47.927Z,98073.34
2019-01-25T23:27:14.086Z,98081.53
2019-01-25T23:29:40.268Z,98086.27
2019-01-25T23:32:06.425Z,98091.34
2019-01-25T23:34:32.718Z,98093.46
2019-01-25T23:36:58.979Z,98091.69
2019-01-25T23:39:25.137Z,98095.42
2019-01-25T23:41:51.297Z,98083.41
2019-01-25T23:44:17.481Z,98080.95
2019-01-25T23:46:43.733Z,98090.72
2019-01-25T23:49:09.893Z,98091.03
2019-01-25T23:51:36.086Z,98083.98
2019-01-25T23:54:02.738Z,98089.80
2019-01-25T23:56:28.993Z,98095.86
2019-01-25T23:58:55.190Z,98102.76
